createdAt,value
2023-07-03T00:01:27.529Z,22.66
2023-07-03T00:03:55.021Z,22.62
2023-07-03T00:06:23.073Z,22.59
2023-07-03T00:08:50.796Z,22.57
2023-07-03T00:11:17.530Z,22.53
2023-07-03T00:13:44.302Z,22.50
2023-07-03T00:16:11.356Z,22.47
2023-07-03T00:18:38.277Z,22.43
2023-07-03T00:21:05.510Z,22.39
2023-07-03T00:23:32.312Z,22.33
2023-07-03T00:25:59.267Z,22.27
2023-07-03T00:28:26.466Z,22.24
2023-07-03T00:30:53.719Z,22.16
2023-07-03T00:33:20.407Z,22.07
2023-07-03T00:35:47.036Z,22.01
2023-07-03T00:38:13.688Z,21.95
2023-07-03T00:40:40.242Z,21.90
2023-07-03T00:43:08.144Z,21.83
2023-07-03T00:45:35.112Z,21.77
2023-07-03T00:48:02.089Z,21.73
2023-07-03T00:50:29.125Z,21.69
2023-07-03T00:52:59.532Z,21.64
2023-07-03T00:55:26.154Z,21.61
2023-07-03T00:57:53.079Z,21.60
2023-07-03T01:00:21.575Z,21.55
2023-07-03T01:03:18.469Z,21.51
2023-07-03T01:05:47.610Z,21.46
2023-07-03T01:08:14.582Z,21.41
2023-07-03T01:10:41.392Z,21.34
2023-07-03T01:13:11.082Z,21.27
2023-07-03T01:15:41.163Z,21.23
2023-07-03T01:18:08.748Z,21.20
2023-07-03T01:20:59.195Z,21.18
2023-07-03T01:23:56.104Z,21.19
2023-07-03T01:26:23.019Z,21.21
2023-07-03T01:28:53.826Z,21.23
2023-07-03T01:31:20.523Z,21.25
2023-07-03T01:33:47.586Z,21.25
2023-07-03T01:36:14.606Z,21.25
2023-07-03T01:38:44.285Z,21.24
2023-07-03T01:41:13.045Z,21.26
2023-07-03T01:43:40.740Z,21.26
2023-07-03T01:46:08.751Z,21.25
2023-07-03T01:48:35.791Z,21.24
2023-07-03T01:51:04.201Z,21.21
2023-07-03T01:53:33.297Z,21.20
2023-07-03T01:56:12.831Z,21.21
2023-07-03T01:58:50.148Z,21.21
2023-07-03T02:01:27.823Z,21.20
2023-07-03T02:04:05.381Z,21.21
2023-07-03T02:06:38.705Z,21.24
2023-07-03T02:09:08.621Z,21.27
2023-07-03T02:11:36.293Z,21.26
2023-07-03T02:14:03.641Z,21.25
2023-07-03T02:16:30.933Z,21.25
2023-07-03T02:18:59.352Z,21.26
2023-07-03T02:21:27.950Z,21.26
2023-07-03T02:23:55.711Z,21.28
2023-07-03T02:26:22.481Z,21.31
2023-07-03T02:28:49.121Z,21.35
2023-07-03T02:31:15.789Z,21.40
2023-07-03T02:33:42.574Z,21.46
2023-07-03T02:36:09.145Z,21.52
2023-07-03T02:38:36.221Z,21.57
2023-07-03T02:41:03.823Z,21.60
2023-07-03T02:43:31.864Z,21.63
2023-07-03T02:46:03.560Z,21.64
2023-07-03T02:48:30.702Z,21.68
2023-07-03T02:50:57.802Z,21.70
2023-07-03T02:53:25.421Z,21.72
2023-07-03T02:55:55.838Z,21.77
2023-07-03T02:58:22.797Z,21.81
2023-07-03T03:00:49.506Z,21.83
2023-07-03T03:03:16.770Z,21.85
2023-07-03T03:05:43.964Z,21.88
2023-07-03T03:08:12.007Z,21.92
2023-07-03T03:10:38.863Z,21.98
2023-07-03T03:13:05.770Z,22.03
2023-07-03T03:15:35.099Z,22.08
2023-07-03T03:18:02.642Z,22.11
2023-07-03T03:20:29.753Z,22.15
2023-07-03T03:22:57.072Z,22.21
2023-07-03T03:25:24.033Z,22.26
2023-07-03T03:27:50.962Z,22.29
2023-07-03T03:30:17.626Z,22.34
2023-07-03T03:32:45.064Z,22.39
2023-07-03T03:35:12.016Z,22.43
2023-07-03T03:37:39.301Z,22.49
2023-07-03T03:40:09.327Z,22.53
2023-07-03T03:42:36.657Z,22.56
2023-07-03T03:45:04.757Z,22.59
2023-07-03T03:47:31.898Z,22.62
2023-07-03T03:49:59.144Z,22.66
2023-07-03T03:52:26.605Z,22.69
2023-07-03T03:54:53.636Z,22.70
2023-07-03T03:57:20.674Z,22.73
2023-07-03T03:59:47.651Z,22.77
2023-07-03T04:02:14.689Z,22.84
2023-07-03T04:04:42.552Z,22.90
2023-07-03T04:07:09.382Z,22.96
2023-07-03T04:09:36.541Z,23.01
2023-07-03T04:12:04.099Z,23.04
2023-07-03T04:14:31.285Z,23.05
2023-07-03T04:16:59.655Z,23.07
2023-07-03T04:19:28.828Z,23.10
2023-07-03T04:21:55.501Z,23.14
2023-07-03T04:24:22.372Z,23.18
2023-07-03T04:26:49.048Z,23.19
2023-07-03T04:29:16.027Z,23.22
2023-07-03T04:31:42.877Z,23.26
2023-07-03T04:34:09.814Z,23.31
2023-07-03T04:36:36.698Z,23.35
2023-07-03T04:39:03.412Z,23.39
2023-07-03T04:41:30.038Z,23.41
2023-07-03T04:43:58.771Z,23.44
2023-07-03T04:46:27.264Z,23.46
2023-07-03T04:49:00.173Z,23.47
2023-07-03T04:51:31.422Z,23.47
2023-07-03T04:54:01.364Z,23.47
2023-07-03T04:56:31.976Z,23.45
2023-07-03T04:58:58.710Z,23.41
2023-07-03T05:01:25.846Z,23.37
2023-07-03T05:03:52.976Z,23.37
2023-07-03T05:06:20.269Z,23.42
2023-07-03T05:08:50.085Z,23.48
2023-07-03T05:11:17.199Z,23.53
2023-07-03T05:13:46.384Z,23.58
2023-07-03T05:16:14.460Z,23.65
2023-07-03T05:18:41.075Z,23.73
2023-07-03T05:21:07.787Z,23.79
2023-07-03T05:23:35.488Z,23.84
2023-07-03T05:26:02.486Z,23.88
2023-07-03T05:28:30.577Z,23.90
2023-07-03T05:30:58.162Z,23.90
2023-07-03T05:33:28.715Z,23.84
2023-07-03T05:35:59.061Z,23.82
2023-07-03T05:38:26.058Z,23.82
2023-07-03T05:40:53.873Z,23.85
2023-07-03T05:43:20.791Z,23.87
2023-07-03T05:45:48.472Z,23.91
2023-07-03T05:48:15.473Z,24.01
2023-07-03T05:50:42.265Z,24.17
2023-07-03T05:53:10.682Z,24.39
2023-07-03T05:55:37.716Z,24.61
2023-07-03T05:58:04.396Z,24.81
2023-07-03T06:00:32.866Z,24.96
2023-07-03T06:03:02.760Z,25.02
2023-07-03T06:17:08.746Z,25.65
2023-07-03T06:19:36.420Z,26.16
2023-07-03T06:22:03.935Z,26.35
2023-07-03T06:24:31.560Z,26.52
2023-07-03T06:26:59.432Z,26.66
2023-07-03T06:29:27.068Z,26.74
2023-07-03T06:31:54.726Z,26.81
2023-07-03T06:34:22.300Z,26.87
2023-07-03T06:36:50.486Z,26.89
2023-07-03T06:39:18.327Z,26.88
2023-07-03T06:41:46.102Z,26.84
2023-07-03T06:44:15.524Z,26.79
2023-07-03T06:46:43.334Z,26.77
2023-07-03T06:49:10.918Z,26.72
2023-07-03T06:51:38.424Z,26.67
2023-07-03T06:54:06.059Z,26.59
2023-07-03T06:56:33.585Z,26.54
2023-07-03T06:59:01.019Z,26.53
2023-07-03T07:01:31.566Z,26.58
2023-07-03T07:03:59.372Z,26.63
2023-07-03T07:06:28.566Z,26.71
2023-07-03T07:08:56.088Z,26.77
2023-07-03T07:11:26.071Z,26.82
2023-07-03T07:13:53.903Z,26.86
2023-07-03T07:16:26.128Z,26.94
2023-07-03T07:18:57.742Z,27.04
2023-07-03T07:21:25.719Z,27.15
2023-07-03T07:23:58.325Z,27.27
2023-07-03T07:26:29.026Z,27.37
2023-07-03T07:28:56.741Z,27.46
2023-07-03T07:31:25.860Z,27.59
2023-07-03T07:33:53.994Z,27.72
2023-07-03T07:36:24.196Z,27.78
2023-07-03T07:38:55.181Z,27.72
2023-07-03T07:41:26.765Z,27.63
2023-07-03T07:43:55.064Z,27.55
2023-07-03T07:46:26.718Z,27.53
2023-07-03T07:48:54.245Z,27.58
2023-07-03T07:51:22.027Z,27.65
2023-07-03T07:53:50.034Z,27.77
2023-07-03T07:56:17.704Z,27.93
2023-07-03T07:58:45.263Z,28.02
2023-07-03T08:01:16.058Z,28.08
2023-07-03T08:06:42.716Z,28.26
2023-07-03T08:09:11.147Z,28.35
2023-07-03T08:11:43.044Z,28.49
2023-07-03T08:14:10.507Z,28.58
2023-07-03T08:16:38.044Z,28.60
2023-07-03T08:19:05.496Z,28.65
2023-07-03T08:21:32.927Z,28.76
2023-07-03T08:24:00.415Z,28.90
2023-07-03T08:26:28.062Z,29.05
2023-07-03T08:32:16.553Z,29.32
2023-07-03T08:37:07.900Z,29.31
2023-07-03T08:37:32.083Z,29.32
2023-07-03T08:40:00.011Z,29.28
2023-07-03T08:42:41.830Z,29.21
2023-07-03T08:45:10.877Z,29.03
2023-07-03T08:47:38.576Z,28.88
2023-07-03T08:50:09.648Z,28.84
2023-07-03T08:52:40.758Z,28.87
2023-07-03T08:55:09.137Z,28.84
2023-07-03T08:57:38.744Z,28.82
2023-07-03T09:00:13.808Z,28.83
2023-07-03T09:02:55.889Z,28.85
2023-07-03T09:05:38.472Z,28.93
2023-07-03T09:08:07.054Z,28.96
2023-07-03T09:10:38.644Z,28.98
2023-07-03T09:13:06.067Z,29.00
2023-07-03T09:16:08.064Z,29.03
2023-07-03T09:18:51.962Z,28.99
2023-07-03T09:21:20.651Z,28.96
2023-07-03T09:24:15.421Z,28.90
2023-07-03T09:26:45.795Z,28.90
2023-07-03T09:29:13.985Z,28.86
2023-07-03T09:31:42.292Z,28.87
2023-07-03T09:34:09.865Z,28.84
2023-07-03T09:36:38.950Z,28.85
2023-07-03T09:39:11.613Z,28.82
2023-07-03T09:41:39.573Z,28.75
2023-07-03T09:44:13.490Z,28.70
2023-07-03T09:46:41.478Z,28.67
2023-07-03T10:12:05.964Z,29.28
2023-07-03T10:14:49.061Z,29.15
2023-07-03T10:17:17.416Z,29.12
2023-07-03T10:19:47.263Z,29.16
2023-07-03T10:22:14.817Z,29.18
2023-07-03T10:24:42.366Z,29.21
2023-07-03T10:27:10.050Z,29.24
2023-07-03T10:29:40.880Z,29.29
2023-07-03T10:32:14.440Z,29.37
2023-07-03T10:34:55.744Z,29.55
2023-07-03T10:37:23.775Z,29.78
2023-07-03T10:39:57.013Z,30.00
2023-07-03T10:42:34.011Z,30.14
2023-07-03T10:45:10.858Z,30.26
2023-07-03T10:47:41.380Z,30.35
2023-07-03T10:50:08.928Z,30.40
2023-07-03T10:52:57.522Z,30.47
2023-07-03T10:55:34.930Z,30.62
2023-07-03T10:58:19.672Z,30.75
2023-07-03T11:01:24.509Z,30.90
2023-07-03T11:04:10.585Z,31.07
2023-07-03T11:06:48.115Z,31.21
2023-07-03T11:09:52.179Z,31.34
2023-07-03T11:13:00.087Z,31.50
2023-07-03T11:15:31.413Z,31.72
2023-07-03T11:24:08.629Z,32.10
2023-07-03T11:29:11.710Z,32.02
2023-07-03T11:31:44.398Z,31.96
2023-07-03T11:37:02.059Z,31.85
2023-07-03T11:44:35.365Z,32.30
2023-07-03T11:47:08.968Z,32.44
2023-07-03T11:50:04.127Z,32.51
2023-07-03T11:52:38.859Z,32.39
2023-07-03T11:55:11.742Z,32.04
2023-07-03T11:57:41.772Z,31.72
2023-07-03T12:00:30.268Z,31.52
2023-07-03T12:03:05.967Z,31.52
2023-07-03T12:05:45.898Z,31.65
2023-07-03T12:08:33.900Z,31.82
2023-07-03T12:11:01.699Z,31.96
2023-07-03T12:13:49.100Z,32.04
2023-07-03T12:16:32.544Z,32.09
2023-07-03T12:19:10.965Z,31.95
2023-07-03T12:21:44.206Z,31.77
2023-07-03T12:24:27.800Z,31.75
2023-07-03T12:27:05.903Z,31.76
2023-07-03T12:29:34.891Z,31.72
2023-07-03T12:32:10.251Z,31.51
2023-07-03T12:34:39.598Z,31.31
2023-07-03T12:37:10.174Z,31.29
2023-07-03T12:39:37.632Z,31.26
2023-07-03T12:42:09.859Z,31.24
2023-07-03T12:44:37.862Z,31.25
2023-07-03T12:47:15.832Z,31.31
2023-07-03T12:49:57.248Z,31.40
2023-07-03T12:52:25.909Z,31.35
2023-07-03T12:55:01.976Z,31.25
2023-07-03T12:57:41.721Z,31.25
2023-07-03T13:00:16.386Z,31.32
2023-07-03T13:02:44.185Z,31.35
2023-07-03T13:05:14.019Z,31.41
2023-07-03T13:07:43.356Z,31.53
2023-07-03T13:10:13.739Z,31.64
2023-07-03T13:12:41.137Z,31.69
2023-07-03T13:15:14.469Z,31.57
2023-07-03T13:17:44.288Z,31.35
2023-07-03T13:20:28.194Z,31.12
2023-07-03T13:23:00.063Z,31.01
2023-07-03T13:25:43.243Z,31.03
2023-07-03T13:28:12.801Z,31.00
2023-07-03T13:30:41.545Z,30.87
2023-07-03T13:33:13.377Z,30.70
2023-07-03T13:35:48.587Z,30.60
2023-07-03T13:38:33.518Z,30.64
2023-07-03T13:41:04.729Z,30.72
2023-07-03T13:43:32.768Z,30.80
2023-07-03T13:46:00.404Z,30.85
2023-07-03T13:48:28.214Z,30.88
2023-07-03T13:50:56.328Z,30.95
2023-07-03T13:53:25.433Z,31.03
2023-07-03T13:55:53.235Z,30.99
2023-07-03T13:58:20.822Z,30.87
2023-07-03T14:00:48.286Z,30.73
2023-07-03T14:03:17.711Z,30.70
2023-07-03T14:05:45.320Z,30.74
2023-07-03T14:08:12.793Z,30.79
2023-07-03T14:10:40.299Z,30.86
2023-07-03T14:13:07.900Z,30.94
2023-07-03T14:15:36.211Z,30.96
2023-07-03T14:18:04.084Z,30.94
2023-07-03T14:20:31.689Z,30.92
2023-07-03T14:22:59.392Z,30.91
2023-07-03T14:25:27.165Z,30.91
2023-07-03T14:27:54.548Z,30.92
2023-07-03T14:30:22.055Z,30.96
2023-07-03T14:32:55.894Z,31.01
2023-07-03T14:35:24.711Z,31.05
2023-07-03T14:37:52.186Z,31.10
2023-07-03T14:40:19.957Z,31.21
2023-07-03T14:42:47.440Z,31.33
2023-07-03T14:45:14.874Z,31.47
2023-07-03T14:47:42.630Z,31.59
2023-07-03T14:50:10.748Z,31.67
2023-07-03T14:52:39.195Z,31.64
2023-07-03T14:55:07.062Z,31.51
2023-07-03T14:57:34.569Z,31.24
2023-07-03T15:00:01.990Z,31.01
2023-07-03T15:02:29.537Z,30.84
2023-07-03T15:04:58.081Z,30.75
2023-07-03T15:07:25.507Z,30.69
2023-07-03T15:09:53.025Z,30.57
2023-07-03T15:12:20.672Z,30.48
2023-07-03T15:14:48.313Z,30.38
2023-07-03T15:17:15.814Z,30.27
2023-07-03T15:19:43.279Z,30.20
2023-07-03T15:22:11.052Z,30.14
2023-07-03T15:24:38.525Z,30.12
2023-07-03T15:27:07.084Z,30.10
2023-07-03T15:29:35.645Z,30.07
2023-07-03T15:32:03.029Z,30.02
2023-07-03T15:34:30.725Z,29.98
2023-07-03T15:36:58.596Z,29.98
2023-07-03T15:39:26.214Z,29.97
2023-07-03T15:41:53.712Z,29.97
2023-07-03T15:44:21.181Z,29.97
2023-07-03T15:46:48.743Z,29.94
2023-07-03T15:49:16.285Z,29.91
2023-07-03T15:51:44.227Z,29.85
2023-07-03T15:54:11.684Z,29.81
2023-07-03T15:56:39.144Z,29.76
2023-07-03T15:59:07.288Z,29.73
2023-07-03T16:01:34.875Z,29.66
2023-07-03T16:04:02.559Z,29.59
2023-07-03T16:06:34.087Z,29.48
2023-07-03T16:09:02.571Z,29.39
2023-07-03T16:11:30.190Z,29.26
2023-07-03T16:14:00.753Z,29.15
2023-07-03T16:16:28.722Z,29.07
2023-07-03T16:18:58.954Z,29.01
2023-07-03T16:21:27.772Z,28.98
2023-07-03T16:23:57.012Z,28.96
2023-07-03T16:26:25.825Z,28.90
2023-07-03T16:28:53.394Z,28.83
2023-07-03T16:31:22.277Z,28.76
2023-07-03T16:33:51.044Z,28.72
2023-07-03T16:36:20.543Z,28.68
2023-07-03T16:38:52.292Z,28.70
2023-07-03T16:41:20.136Z,28.69
2023-07-03T16:43:48.208Z,28.67
2023-07-03T16:46:19.912Z,28.60
2023-07-03T16:48:48.365Z,28.52
2023-07-03T16:51:15.973Z,28.45
2023-07-03T16:53:43.392Z,28.42
2023-07-03T16:56:12.757Z,28.35
2023-07-03T16:58:40.965Z,28.29
2023-07-03T17:01:10.319Z,28.25
2023-07-03T17:03:38.115Z,28.21
2023-07-03T17:06:08.610Z,28.15
2023-07-03T17:08:36.002Z,28.07
2023-07-03T17:11:03.778Z,27.96
2023-07-03T17:13:31.497Z,27.89
2023-07-03T17:15:58.906Z,27.86
2023-07-03T17:18:26.349Z,27.82
2023-07-03T17:20:53.783Z,27.78
2023-07-03T17:23:21.341Z,27.71
2023-07-03T17:25:50.482Z,27.61
2023-07-03T17:28:18.477Z,27.52
2023-07-03T17:30:46.686Z,27.42
2023-07-03T17:33:14.190Z,27.32
2023-07-03T17:35:44.259Z,27.19
2023-07-03T17:38:12.225Z,27.05
2023-07-03T17:40:40.129Z,26.92
2023-07-03T17:43:07.591Z,26.80
2023-07-03T17:45:35.716Z,26.73
2023-07-03T17:48:03.419Z,26.65
2023-07-03T17:50:30.908Z,26.55
2023-07-03T17:52:58.377Z,26.48
2023-07-03T17:55:26.476Z,26.40
2023-07-03T17:57:56.062Z,26.33
2023-07-03T18:00:23.620Z,26.26
2023-07-03T18:02:51.153Z,26.21
2023-07-03T18:05:18.657Z,26.15
2023-07-03T18:07:46.070Z,26.08
2023-07-03T18:10:13.641Z,26.01
2023-07-03T18:12:41.176Z,25.94
2023-07-03T18:15:10.618Z,25.85
2023-07-03T18:17:38.099Z,25.78
2023-07-03T18:20:06.020Z,25.72
2023-07-03T18:22:34.249Z,25.65
2023-07-03T18:25:02.970Z,25.57
2023-07-03T18:27:30.577Z,25.46
2023-07-03T18:29:58.066Z,25.37
2023-07-03T18:32:25.522Z,25.30
2023-07-03T18:34:53.139Z,25.23
2023-07-03T18:37:22.074Z,25.17
2023-07-03T18:39:50.390Z,25.10
2023-07-03T18:42:18.773Z,25.03
2023-07-03T18:44:46.426Z,24.90
2023-07-03T18:47:14.007Z,24.77
2023-07-03T18:49:41.493Z,24.63
2023-07-03T18:52:08.847Z,24.51
2023-07-03T18:54:36.228Z,24.39
2023-07-03T18:57:03.959Z,24.29
2023-07-03T18:59:31.485Z,24.21
2023-07-03T19:02:05.216Z,24.14
2023-07-03T19:04:33.640Z,24.10
2023-07-03T19:07:01.114Z,24.05
2023-07-03T19:09:28.517Z,24.02
2023-07-03T19:11:56.164Z,23.99
2023-07-03T19:14:23.732Z,23.94
2023-07-03T19:16:51.228Z,23.89
2023-07-03T19:19:18.899Z,23.83
2023-07-03T19:21:47.179Z,23.77
2023-07-03T19:24:14.764Z,23.70
2023-07-03T19:26:42.226Z,23.62
2023-07-03T19:29:09.878Z,23.58
2023-07-03T19:31:38.306Z,23.54
2023-07-03T19:34:05.888Z,23.49
2023-07-03T19:36:33.299Z,23.45
2023-07-03T19:39:00.862Z,23.38
2023-07-03T19:41:30.174Z,23.34
2023-07-03T19:43:57.949Z,23.30
2023-07-03T19:46:25.927Z,23.26
2023-07-03T19:48:56.055Z,23.23
2023-07-03T19:51:23.577Z,23.18
2023-07-03T19:53:50.949Z,23.11
2023-07-03T19:56:20.884Z,23.01
2023-07-03T19:58:51.357Z,22.89
2023-07-03T20:01:18.956Z,22.77
2023-07-03T20:03:46.693Z,22.65
2023-07-03T20:06:18.491Z,22.56
2023-07-03T20:08:50.255Z,22.48
2023-07-03T20:11:17.596Z,22.42
2023-07-03T20:13:46.672Z,22.36
2023-07-03T20:16:14.465Z,22.26
2023-07-03T20:18:44.868Z,22.17
2023-07-03T20:21:12.369Z,22.10
2023-07-03T20:23:39.958Z,22.03
2023-07-03T20:26:07.473Z,21.95
2023-07-03T20:28:36.152Z,21.82
2023-07-03T20:31:03.577Z,21.69
2023-07-03T20:33:31.033Z,21.60
2023-07-03T20:36:00.148Z,21.50
2023-07-03T20:38:27.600Z,21.44
2023-07-03T20:40:59.233Z,21.38
2023-07-03T20:43:26.657Z,21.35
2023-07-03T20:46:15.363Z,21.32
2023-07-03T20:48:43.188Z,21.26
2023-07-03T20:51:13.831Z,21.21
2023-07-03T20:53:54.042Z,21.11
2023-07-03T20:56:25.141Z,20.96
2023-07-03T20:58:53.646Z,20.81
2023-07-03T21:01:30.206Z,20.67
2023-07-03T21:04:01.247Z,20.57
2023-07-03T21:06:33.313Z,20.53
2023-07-03T21:09:00.957Z,20.50
2023-07-03T21:11:29.578Z,20.44
2023-07-03T21:13:59.192Z,20.41
2023-07-03T21:16:26.993Z,20.38
2023-07-03T21:18:54.528Z,20.37
2023-07-03T21:21:24.156Z,20.32
2023-07-03T21:23:51.784Z,20.27
2023-07-03T21:26:20.696Z,20.21
2023-07-03T21:28:48.907Z,20.21
2023-07-03T21:31:18.568Z,20.17
2023-07-03T21:33:46.468Z,20.11
2023-07-03T21:36:14.639Z,20.04
2023-07-03T21:38:42.766Z,19.98
2023-07-03T21:41:10.982Z,19.91
2023-07-03T21:43:38.721Z,19.84
2023-07-03T21:46:09.403Z,19.76
2023-07-03T21:48:37.483Z,19.71
2023-07-03T21:51:05.437Z,19.69
2023-07-03T21:53:34.699Z,19.67
2023-07-03T21:56:06.893Z,19.63
2023-07-03T21:58:34.529Z,19.57
2023-07-03T22:01:02.679Z,19.53
2023-07-03T22:03:30.530Z,19.50
2023-07-03T22:05:58.070Z,19.44
2023-07-03T22:08:25.660Z,19.41
2023-07-03T22:10:53.544Z,19.34
2023-07-03T22:13:21.079Z,19.30
2023-07-03T22:15:48.586Z,19.27
2023-07-03T22:18:16.225Z,19.23
2023-07-03T22:20:43.944Z,19.17
2023-07-03T22:23:12.937Z,19.12
2023-07-03T22:25:40.406Z,19.09
2023-07-03T22:28:08.123Z,19.04
2023-07-03T22:30:35.469Z,18.99
2023-07-03T22:33:03.159Z,18.94
2023-07-03T22:35:30.706Z,18.88
2023-07-03T22:37:58.125Z,18.82
2023-07-03T22:40:25.774Z,18.76
2023-07-03T22:42:53.221Z,18.71
2023-07-03T22:45:21.146Z,18.71
2023-07-03T22:47:48.573Z,18.71
2023-07-03T22:50:16.154Z,18.70
2023-07-03T22:52:43.524Z,18.71
2023-07-03T22:55:11.032Z,18.71
2023-07-03T22:57:38.410Z,18.70
2023-07-03T23:00:12.079Z,18.68
2023-07-03T23:02:39.990Z,18.66
2023-07-03T23:05:07.849Z,18.61
2023-07-03T23:07:35.400Z,18.58
2023-07-03T23:10:03.621Z,18.54
2023-07-03T23:12:31.097Z,18.49
2023-07-03T23:14:58.482Z,18.41
2023-07-03T23:17:32.453Z,18.36
2023-07-03T23:20:00.873Z,18.31
2023-07-03T23:22:28.373Z,18.24
2023-07-03T23:24:56.174Z,18.19
2023-07-03T23:27:24.291Z,18.16
2023-07-03T23:29:52.630Z,18.13
2023-07-03T23:32:20.277Z,18.07
2023-07-03T23:34:48.738Z,18.03
2023-07-03T23:37:17.929Z,18.02
2023-07-03T23:39:45.436Z,18.04
2023-07-03T23:42:14.035Z,18.02
2023-07-03T23:44:41.590Z,17.98
2023-07-03T23:47:08.968Z,17.93
2023-07-03T23:49:36.661Z,17.88
2023-07-03T23:52:05.870Z,17.84
2023-07-03T23:54:33.282Z,17.84
2023-07-03T23:57:00.818Z,17.84
2023-07-03T23:59:28.307Z,17.86
